Time;durP1;ratioP1;P1;durP2;ratioP2;P2;SDS_P1;SDS_P2;PMS_P1;PMS_P2;Temp;Humidity;BMP_temperature;BMP_pressure;BME280_temperature;BME280_humidity;BME280_pressure;Samples;Min_cycle;Max_cycle;Signal;HPM_P1;HPM_P2
2021/04/16 00:00:33;;;;;;;2.50;1.97;;;3.40;99.90;;;;;;5088174;28;20490;-85
2021/04/16 00:02:59;;;;;;;4.20;2.60;;;3.30;99.90;;;;;;5089691;28;20215;-85
2021/04/16 00:05:26;;;;;;;5.80;2.43;;;3.20;99.90;;;;;;5100549;27;20259;-87
2021/04/16 00:07:53;;;;;;;5.37;2.33;;;3.20;99.90;;;;;;5121792;27;20203;-85
2021/04/16 00:10:23;;;;;;;3.27;2.40;;;3.10;99.90;;;;;;5103913;28;20273;-84
2021/04/16 00:12:49;;;;;;;4.97;2.70;;;3.10;99.90;;;;;;5089800;28;20201;-85
2021/04/16 00:15:19;;;;;;;4.03;2.90;;;3.10;99.90;;;;;;5090111;27;20219;-85
2021/04/16 00:17:45;;;;;;;6.63;3.03;;;3.00;99.90;;;;;;5089038;28;20208;-83
2021/04/16 00:20:14;;;;;;;2.63;2.30;;;3.00;99.90;;;;;;5089208;28;20208;-85
2021/04/16 00:22:41;;;;;;;4.47;2.63;;;2.90;99.90;;;;;;5109342;28;20231;-85
2021/04/16 00:25:10;;;;;;;5.27;3.00;;;2.90;99.90;;;;;;5108567;28;20207;-85
2021/04/16 00:27:38;;;;;;;4.33;2.53;;;2.80;99.90;;;;;;5088941;28;20204;-85
2021/04/16 00:30:06;;;;;;;3.50;2.70;;;2.80;99.90;;;;;;5089170;28;20188;-81
2021/04/16 00:32:33;;;;;;;3.10;2.40;;;2.70;99.90;;;;;;5088193;28;20216;-81
2021/04/16 00:35:00;;;;;;;5.23;2.77;;;2.70;99.90;;;;;;5118972;27;20618;-80
2021/04/16 00:37:26;;;;;;;3.03;2.30;;;2.60;99.90;;;;;;5129129;27;20222;-82
2021/04/16 00:39:52;;;;;;;3.77;2.20;;;2.60;99.90;;;;;;5130016;27;20263;-85
2021/04/16 00:42:19;;;;;;;2.93;1.97;;;2.60;99.90;;;;;;5129662;27;20283;-85
2021/04/16 00:44:46;;;;;;;3.50;2.30;;;2.60;99.90;;;;;;5100241;27;20212;-84
2021/04/16 00:47:15;;;;;;;3.50;2.17;;;2.60;99.90;;;;;;5088139;28;20193;-85
2021/04/16 00:49:45;;;;;;;3.40;1.80;;;2.50;99.90;;;;;;5100055;27;20219;-85
2021/04/16 00:52:13;;;;;;;2.83;2.40;;;2.50;99.90;;;;;;5109540;28;20246;-85
2021/04/16 00:54:42;;;;;;;2.73;2.10;;;2.50;99.90;;;;;;5089017;28;20229;-82
2021/04/16 00:57:13;;;;;;;2.70;2.07;;;2.50;99.90;;;;;;5089123;28;20235;-84
2021/04/16 00:59:45;;;;;;;3.50;2.23;;;2.50;99.90;;;;;;5092521;28;20268;-81
2021/04/16 01:02:13;;;;;;;3.50;2.17;;;2.40;99.90;;;;;;5109239;28;20200;-84
2021/04/16 01:04:39;;;;;;;4.00;2.20;;;2.40;99.90;;;;;;5109401;28;20200;-84
2021/04/16 01:07:08;;;;;;;4.03;2.33;;;2.30;99.90;;;;;;5095935;28;20219;-84
2021/04/16 01:09:35;;;;;;;2.20;2.00;;;2.30;99.90;;;;;;5109016;28;20245;-84
2021/04/16 01:12:04;;;;;;;3.70;2.83;;;2.30;99.90;;;;;;5116640;27;20207;-83
2021/04/16 01:14:31;;;;;;;5.17;2.67;;;2.30;99.90;;;;;;5129348;27;20926;-84
2021/04/16 01:16:58;;;;;;;4.57;2.43;;;2.20;99.90;;;;;;5129167;28;20223;-85
2021/04/16 01:19:35;;;;;;;3.07;2.50;;;2.20;99.90;;;;;;5125705;28;20232;-83
2021/04/16 01:22:06;;;;;;;2.40;2.17;;;2.10;99.90;;;;;;5087924;28;20200;-84
2021/04/16 01:24:35;;;;;;;3.73;2.50;;;2.00;99.90;;;;;;5088788;28;20632;-83
2021/04/16 01:27:10;;;;;;;2.90;2.50;;;2.00;99.90;;;;;;5109059;28;20501;-83
2021/04/16 01:29:39;;;;;;;2.93;2.50;;;2.00;99.90;;;;;;5108445;28;20207;-84
2021/04/16 01:32:07;;;;;;;2.63;2.40;;;2.00;99.90;;;;;;5108140;28;20777;-83
2021/04/16 01:34:34;;;;;;;3.93;2.80;;;1.90;99.90;;;;;;5109313;28;20200;-84
2021/04/16 01:37:00;;;;;;;3.17;2.33;;;1.90;99.90;;;;;;5092747;28;20505;-83
2021/04/16 01:39:30;;;;;;;5.63;3.13;;;1.80;99.90;;;;;;5087240;28;20219;-82
2021/04/16 01:41:59;;;;;;;3.63;2.17;;;1.80;99.90;;;;;;5085722;28;20588;-85
2021/04/16 01:44:28;;;;;;;5.60;2.60;;;1.80;99.90;;;;;;5082675;28;20204;-84
2021/04/16 01:46:57;;;;;;;4.50;2.40;;;1.80;99.90;;;;;;5104214;28;20207;-83
2021/04/16 01:49:25;;;;;;;4.60;2.57;;;1.80;99.90;;;;;;5105350;28;20467;-81
2021/04/16 01:51:52;;;;;;;3.90;2.87;;;1.70;99.90;;;;;;5104739;28;20244;-82
2021/04/16 01:54:23;;;;;;;3.00;2.30;;;1.70;99.90;;;;;;5104497;28;20204;-84
2021/04/16 01:56:52;;;;;;;3.67;2.73;;;1.70;99.90;;;;;;5099895;28;20287;-83
2021/04/16 01:59:23;;;;;;;2.80;2.30;;;1.60;99.90;;;;;;5085041;28;20197;-81
2021/04/16 02:01:50;;;;;;;4.13;2.37;;;1.60;99.90;;;;;;5099099;28;20294;-83
2021/04/16 02:04:17;;;;;;;3.90;3.00;;;1.60;99.90;;;;;;5105590;28;20211;-82
2021/04/16 02:06:44;;;;;;;3.17;2.43;;;1.60;99.90;;;;;;5097496;28;20209;-85
2021/04/16 02:09:14;;;;;;;3.10;2.37;;;1.60;99.90;;;;;;5105918;27;20204;-84
2021/04/16 02:11:42;;;;;;;3.30;2.60;;;1.50;99.90;;;;;;5091632;28;20292;-85
2021/04/16 02:14:10;;;;;;;3.53;2.47;;;1.50;99.90;;;;;;5092675;28;20196;-83
2021/04/16 02:16:37;;;;;;;5.37;3.60;;;1.50;99.90;;;;;;5092075;28;20232;-84
2021/04/16 02:19:04;;;;;;;3.33;2.60;;;1.50;99.90;;;;;;5092177;28;20891;-84
2021/04/16 02:21:31;;;;;;;4.63;2.60;;;1.50;99.90;;;;;;5104070;28;20212;-84
2021/04/16 02:23:58;;;;;;;3.87;2.30;;;1.50;99.90;;;;;;5112210;28;20200;-84
2021/04/16 02:26:24;;;;;;;2.90;2.23;;;1.50;99.90;;;;;;5094824;28;20209;-80
2021/04/16 02:28:50;;;;;;;3.00;2.60;;;1.40;99.90;;;;;;5092305;28;20243;-84
2021/04/16 02:31:17;;;;;;;3.53;2.27;;;1.40;99.90;;;;;;5091441;28;20624;-84
2021/04/16 02:33:44;;;;;;;2.33;2.13;;;1.40;99.90;;;;;;5103378;28;20200;-84
2021/04/16 02:36:11;;;;;;;2.67;2.40;;;1.40;99.90;;;;;;5112512;28;20266;-84
2021/04/16 02:38:37;;;;;;;2.50;2.10;;;1.40;99.90;;;;;;5112551;28;20195;-82
2021/04/16 02:41:04;;;;;;;3.47;2.30;;;1.30;99.90;;;;;;5122161;27;20203;-84
2021/04/16 02:43:30;;;;;;;3.17;2.30;;;1.30;99.90;;;;;;5111916;27;20231;-83
2021/04/16 02:45:57;;;;;;;2.90;2.17;;;1.30;99.90;;;;;;5112028;28;20196;-83
2021/04/16 02:48:23;;;;;;;5.00;3.17;;;1.30;99.90;;;;;;5111519;28;20204;-82
2021/04/16 02:50:51;;;;;;;3.83;2.40;;;1.30;99.90;;;;;;5112364;28;20199;-84
2021/04/16 02:53:17;;;;;;;3.20;2.47;;;1.20;99.90;;;;;;5111299;28;20228;-83
2021/04/16 02:55:44;;;;;;;3.03;2.23;;;1.20;99.90;;;;;;5110988;28;20224;-84
2021/04/16 02:58:10;;;;;;;3.87;2.57;;;1.20;99.90;;;;;;5108152;28;20212;-84
2021/04/16 03:00:37;;;;;;;3.30;2.20;;;1.20;99.90;;;;;;5090763;28;20250;-83
2021/04/16 03:03:04;;;;;;;3.03;2.73;;;1.20;99.90;;;;;;5086460;28;20215;-84
2021/04/16 03:05:31;;;;;;;4.63;2.53;;;1.20;99.90;;;;;;5085450;28;20200;-83
2021/04/16 03:07:58;;;;;;;2.67;2.40;;;1.20;99.90;;;;;;5095983;28;20204;-81
2021/04/16 03:10:30;;;;;;;3.33;2.53;;;1.10;99.90;;;;;;5108547;28;20214;-80
2021/04/16 03:12:57;;;;;;;2.53;2.30;;;1.10;99.90;;;;;;5101513;28;20219;-80
2021/04/16 03:15:24;;;;;;;3.00;2.53;;;1.10;99.90;;;;;;5087031;28;20275;-80
2021/04/16 03:17:50;;;;;;;2.83;2.20;;;1.00;99.90;;;;;;5087462;28;20216;-83
2021/04/16 03:20:19;;;;;;;4.10;2.40;;;1.00;99.90;;;;;;5088002;28;20211;-81
2021/04/16 03:22:45;;;;;;;3.03;2.00;;;1.00;99.90;;;;;;5085995;28;20287;-81
2021/04/16 03:25:14;;;;;;;3.43;2.50;;;1.00;99.90;;;;;;5088089;28;20266;-80
2021/04/16 03:27:41;;;;;;;3.03;2.43;;;1.00;99.90;;;;;;5090519;28;20200;-80
2021/04/16 03:30:10;;;;;;;3.53;2.80;;;1.00;99.90;;;;;;5088486;28;20320;-81
2021/04/16 03:32:36;;;;;;;3.23;2.30;;;1.00;99.90;;;;;;5087415;28;20200;-79
2021/04/16 03:35:05;;;;;;;3.23;2.53;;;1.00;99.90;;;;;;5087379;28;20253;-79
2021/04/16 03:37:31;;;;;;;3.17;2.00;;;1.00;99.90;;;;;;5086859;28;20238;-81
2021/04/16 03:39:58;;;;;;;2.27;1.87;;;1.00;99.90;;;;;;5088318;28;20192;-84
2021/04/16 03:42:25;;;;;;;2.27;1.97;;;1.00;99.90;;;;;;5086943;28;20424;-83
2021/04/16 03:44:51;;;;;;;3.43;2.10;;;1.00;99.90;;;;;;5087379;28;20885;-81
2021/04/16 03:47:18;;;;;;;2.63;2.13;;;1.00;99.90;;;;;;5087758;28;20216;-80
2021/04/16 03:49:46;;;;;;;2.77;2.47;;;1.00;99.90;;;;;;5087221;28;20212;-82
2021/04/16 03:52:13;;;;;;;3.10;1.93;;;1.00;99.90;;;;;;5088164;28;20236;-81
2021/04/16 03:54:39;;;;;;;2.40;2.20;;;1.00;99.90;;;;;;5088286;28;20204;-80
2021/04/16 03:57:08;;;;;;;3.13;2.30;;;1.00;99.90;;;;;;5087544;28;20216;-80
2021/04/16 03:59:36;;;;;;;3.00;2.30;;;1.00;99.90;;;;;;5093257;28;20303;-83
2021/04/16 04:02:02;;;;;;;2.23;1.90;;;1.00;99.90;;;;;;5107353;28;20200;-80
2021/04/16 04:04:29;;;;;;;2.37;1.97;;;1.00;99.90;;;;;;5103679;28;20207;-83
2021/04/16 04:06:55;;;;;;;2.90;2.23;;;1.00;99.90;;;;;;5105326;28;20471;-83
2021/04/16 04:09:22;;;;;;;2.07;1.80;;;1.00;99.90;;;;;;5097965;28;20615;-82
2021/04/16 04:11:48;;;;;;;3.07;2.43;;;0.90;99.90;;;;;;5085132;28;20287;-82
2021/04/16 04:14:15;;;;;;;2.30;2.00;;;0.90;99.90;;;;;;5086757;28;20209;-80
2021/04/16 04:16:50;;;;;;;4.57;2.67;;;1.00;99.90;;;;;;5086804;28;20232;-81
2021/04/16 04:19:17;;;;;;;2.53;2.33;;;0.90;99.90;;;;;;5088376;28;20491;-83
2021/04/16 04:21:43;;;;;;;2.57;2.10;;;0.90;99.90;;;;;;5089468;28;20537;-83
2021/04/16 04:24:10;;;;;;;3.80;1.80;;;0.90;99.90;;;;;;5088915;28;20213;-82
2021/04/16 04:26:36;;;;;;;3.47;2.27;;;0.90;99.90;;;;;;5087464;28;20223;-83
2021/04/16 04:29:03;;;;;;;2.57;1.77;;;0.90;99.90;;;;;;5087208;28;20987;-84
2021/04/16 04:31:29;;;;;;;2.50;2.07;;;0.80;99.90;;;;;;5088916;28;20623;-84
2021/04/16 04:33:56;;;;;;;6.00;2.50;;;0.80;99.90;;;;;;5090086;28;20192;-83
2021/04/16 04:36:23;;;;;;;3.57;2.20;;;0.80;99.90;;;;;;5089135;28;20220;-83
2021/04/16 04:38:51;;;;;;;3.57;2.30;;;0.80;99.90;;;;;;5088683;28;20655;-83
2021/04/16 04:41:17;;;;;;;4.47;2.30;;;0.80;99.90;;;;;;5088840;27;20266;-82
2021/04/16 04:43:44;;;;;;;4.00;2.27;;;0.80;99.90;;;;;;5088692;28;20217;-81
2021/04/16 04:46:10;;;;;;;3.30;2.57;;;0.80;99.90;;;;;;5090095;28;20200;-82
2021/04/16 04:48:37;;;;;;;3.90;3.17;;;0.80;99.90;;;;;;5089577;28;20204;-83
2021/04/16 04:51:05;;;;;;;2.90;2.33;;;0.80;99.90;;;;;;5088974;28;20204;-84
2021/04/16 04:53:32;;;;;;;4.53;2.77;;;0.80;99.90;;;;;;5089006;28;20983;-83
2021/04/16 04:55:59;;;;;;;3.77;2.67;;;0.80;99.90;;;;;;5089563;28;20220;-84
2021/04/16 04:58:26;;;;;;;4.67;2.73;;;0.80;99.90;;;;;;5088621;28;20896;-83
2021/04/16 05:00:53;;;;;;;4.53;3.00;;;0.80;99.90;;;;;;5121433;27;20583;-81
2021/04/16 05:03:19;;;;;;;4.80;2.70;;;0.90;99.90;;;;;;5126643;27;20247;-83
2021/04/16 05:05:46;;;;;;;4.50;2.70;;;0.90;99.90;;;;;;5127255;27;20195;-84
2021/04/16 05:08:13;;;;;;;5.63;2.50;;;0.90;99.90;;;;;;5088772;28;20216;-81
2021/04/16 05:10:39;;;;;;;4.80;3.20;;;1.00;99.90;;;;;;5089390;28;20189;-84
2021/04/16 05:13:06;;;;;;;5.17;3.07;;;1.00;99.90;;;;;;5088448;28;20313;-83
2021/04/16 05:15:33;;;;;;;3.90;3.20;;;1.00;99.90;;;;;;5088667;28;20319;-84
2021/04/16 05:18:00;;;;;;;6.40;3.67;;;1.10;99.90;;;;;;5088155;28;20258;-83
2021/04/16 05:20:26;;;;;;;5.23;3.00;;;1.20;99.90;;;;;;5087704;28;20201;-84
2021/04/16 05:22:53;;;;;;;5.23;3.00;;;1.30;99.90;;;;;;5087913;28;20209;-80
2021/04/16 05:25:20;;;;;;;4.83;3.47;;;1.30;99.90;;;;;;5085658;28;20671;-83
2021/04/16 05:27:47;;;;;;;3.87;2.80;;;1.50;99.90;;;;;;5085244;28;20494;-83
2021/04/16 05:30:15;;;;;;;5.63;3.30;;;1.60;99.90;;;;;;5089289;28;20211;-83
2021/04/16 05:32:41;;;;;;;5.30;3.10;;;1.70;99.90;;;;;;5088519;28;20208;-81
2021/04/16 05:35:09;;;;;;;4.97;3.00;;;1.80;99.90;;;;;;5092609;28;20501;-82
2021/04/16 05:37:37;;;;;;;6.57;2.60;;;1.90;99.90;;;;;;5111652;28;20231;-83
2021/04/16 05:40:05;;;;;;;5.13;2.83;;;2.00;99.90;;;;;;5094197;28;20900;-84
2021/04/16 05:42:32;;;;;;;5.43;3.77;;;2.10;99.90;;;;;;5103281;28;20228;-85
2021/04/16 05:45:00;;;;;;;5.53;3.30;;;2.40;99.90;;;;;;5096573;28;20214;-84
2021/04/16 05:47:27;;;;;;;6.60;3.67;;;2.70;99.90;;;;;;5111657;28;20204;-85
2021/04/16 05:49:53;;;;;;;6.20;3.20;;;2.80;99.90;;;;;;5111834;28;20206;-83
2021/04/16 05:52:20;;;;;;;4.80;3.20;;;2.90;99.90;;;;;;5105715;28;20263;-82
2021/04/16 05:54:46;;;;;;;5.07;2.80;;;3.00;99.90;;;;;;5090980;28;20209;-79
2021/04/16 05:57:13;;;;;;;8.93;3.17;;;3.10;99.90;;;;;;5090124;28;20273;-83
2021/04/16 05:59:41;;;;;;;5.37;3.00;;;3.20;99.90;;;;;;5090853;28;20262;-83
2021/04/16 06:02:24;;;;;;;7.00;3.30;;;3.30;99.90;;;;;;5092458;28;20216;-85
2021/04/16 06:04:51;;;;;;;6.23;2.97;;;3.40;99.90;;;;;;5091373;28;20208;-84
2021/04/16 06:07:30;;;;;;;7.80;3.50;;;3.50;99.90;;;;;;5094148;28;20203;-85
2021/04/16 06:09:56;;;;;;;5.33;3.20;;;3.70;99.90;;;;;;5095466;28;20204;-86
2021/04/16 06:12:23;;;;;;;6.73;2.87;;;3.80;99.90;;;;;;5092590;28;20631;-84
2021/04/16 06:14:51;;;;;;;6.93;3.03;;;3.90;99.90;;;;;;5093048;28;20661;-84
2021/04/16 06:17:18;;;;;;;6.00;3.70;;;4.10;99.90;;;;;;5100142;28;20232;-85
2021/04/16 06:19:49;;;;;;;13.03;3.03;;;4.20;99.90;;;;;;5112730;28;20196;-84
2021/04/16 06:22:16;;;;;;;5.63;3.63;;;4.50;99.90;;;;;;5096151;28;20203;-84
2021/04/16 06:24:42;;;;;;;6.47;3.40;;;4.50;99.90;;;;;;5092116;28;20204;-85
2021/04/16 06:27:09;;;;;;;7.63;2.60;;;4.60;99.90;;;;;;5091500;28;20406;-85
2021/04/16 06:29:35;;;;;;;5.40;2.57;;;4.70;99.90;;;;;;5091128;28;20509;-82
2021/04/16 06:32:03;;;;;;;7.23;3.47;;;4.80;99.90;;;;;;5091374;28;20193;-84
2021/04/16 06:34:30;;;;;;;5.17;2.60;;;4.80;99.90;;;;;;5091252;28;20665;-86
2021/04/16 06:36:56;;;;;;;7.67;2.97;;;4.90;99.90;;;;;;5092928;28;20220;-85
2021/04/16 06:39:22;;;;;;;6.23;2.80;;;5.00;99.90;;;;;;5084853;28;20193;-88
2021/04/16 06:41:51;;;;;;;4.57;2.40;;;5.10;99.90;;;;;;5083915;27;20192;-89
2021/04/16 06:44:22;;;;;;;6.87;2.80;;;5.30;99.90;;;;;;5092262;28;20365;-89
2021/04/16 06:46:51;;;;;;;4.57;2.30;;;5.30;99.90;;;;;;5102821;28;20524;-88
2021/04/16 06:49:23;;;;;;;6.07;2.93;;;5.40;99.90;;;;;;5111736;28;20595;-89
2021/04/16 06:52:02;;;;;;;5.07;2.53;;;5.60;99.90;;;;;;5112257;28;20263;-90
2021/04/16 06:54:37;;;;;;;4.57;2.30;;;5.70;99.90;;;;;;5093750;28;20197;-89
2021/04/16 06:57:18;;;;;;;7.40;2.53;;;5.80;99.90;;;;;;5092399;28;20284;-86
2021/04/16 06:59:49;;;;;;;4.30;2.30;;;6.00;99.90;;;;;;5090521;28;20185;-85
2021/04/16 07:02:18;;;;;;;7.77;2.80;;;6.10;99.90;;;;;;5091827;28;20293;-86
2021/04/16 07:04:50;;;;;;;5.23;3.00;;;6.20;99.90;;;;;;5100872;28;20204;-87
2021/04/16 07:07:23;;;;;;;7.33;3.10;;;6.40;99.90;;;;;;5112057;28;20196;-85
2021/04/16 07:09:58;;;;;;;8.07;3.13;;;6.50;99.90;;;;;;5112055;28;20204;-87
2021/04/16 07:12:25;;;;;;;3.57;2.20;;;6.60;99.90;;;;;;5091683;28;20191;-87
2021/04/16 07:14:53;;;;;;;3.73;2.10;;;6.80;99.90;;;;;;5091366;28;20205;-89
2021/04/16 07:17:22;;;;;;;3.30;1.97;;;7.00;99.90;;;;;;5090459;28;20796;-87
2021/04/16 07:19:50;;;;;;;5.20;2.27;;;7.20;99.90;;;;;;5091979;28;20199;-88
2021/04/16 07:22:20;;;;;;;13.33;2.33;;;7.50;99.90;;;;;;5091756;28;20424;-87
2021/04/16 07:24:48;;;;;;;3.73;1.70;;;7.80;99.90;;;;;;5092139;28;20197;-86
2021/04/16 07:27:20;;;;;;;5.90;2.10;;;8.10;99.90;;;;;;5091455;28;20541;-85
2021/04/16 07:29:52;;;;;;;5.77;2.97;;;8.30;99.90;;;;;;5091625;28;20223;-85
2021/04/16 07:32:39;;;;;;;5.87;2.27;;;8.50;99.90;;;;;;5091051;28;20280;-85
2021/04/16 07:35:22;;;;;;;4.90;2.00;;;8.60;99.90;;;;;;5090859;28;20204;-85
2021/04/16 07:37:59;;;;;;;5.17;1.83;;;8.80;99.90;;;;;;5090358;28;20281;-87
2021/04/16 07:40:28;;;;;;;8.43;2.30;;;8.90;99.90;;;;;;5091103;28;20480;-88
2021/04/16 07:42:54;;;;;;;3.83;1.70;;;9.10;99.90;;;;;;5088411;28;20236;-89
2021/04/16 07:45:38;;;;;;;5.27;2.27;;;9.20;99.90;;;;;;5086374;28;20205;-86
2021/04/16 07:48:29;;;;;;;9.07;3.87;;;9.30;99.90;;;;;;5100974;28;20196;-88
2021/04/16 07:50:59;;;;;;;8.17;3.53;;;9.40;99.90;;;;;;5111889;28;20533;-86
2021/04/16 07:53:28;;;;;;;7.00;2.40;;;9.50;99.90;;;;;;5111405;28;20261;-86
2021/04/16 07:56:17;;;;;;;7.03;2.27;;;9.70;99.90;;;;;;5111810;27;20207;-89
2021/04/16 07:58:45;;;;;;;8.07;3.40;;;9.80;99.90;;;;;;5109097;28;20188;-79
2021/04/16 08:01:15;;;;;;;8.23;2.97;;;10.00;99.90;;;;;;5107531;28;20273;-87
2021/04/16 08:03:48;;;;;;;7.27;2.17;;;10.10;99.90;;;;;;5102957;28;20306;-86
2021/04/16 08:06:28;;;;;;;5.30;2.47;;;10.30;99.90;;;;;;5087451;28;20215;-86
2021/04/16 08:08:54;;;;;;;5.70;2.30;;;10.40;99.90;;;;;;5103129;28;20218;-79
2021/04/16 08:11:25;;;;;;;7.07;2.40;;;10.60;99.90;;;;;;5105981;28;20234;-83
2021/04/16 08:13:55;;;;;;;5.67;3.13;;;10.60;99.90;;;;;;5108019;28;20604;-87
2021/04/16 08:16:24;;;;;;;5.67;2.67;;;10.70;99.90;;;;;;5106630;28;20228;-85
2021/04/16 08:19:04;;;;;;;4.83;2.20;;;11.00;99.90;;;;;;5108184;28;20207;-87
2021/04/16 08:21:37;;;;;;;7.53;2.70;;;11.00;99.90;;;;;;5107834;28;20191;-82
2021/04/16 08:24:11;;;;;;;3.90;2.20;;;11.10;99.90;;;;;;5104726;28;20207;-82
2021/04/16 08:26:41;;;;;;;4.10;3.03;;;11.30;99.90;;;;;;5105692;28;20200;-82
2021/04/16 08:29:14;;;;;;;4.97;2.60;;;11.50;99.90;;;;;;5100023;28;20197;-86
2021/04/16 08:31:44;;;;;;;3.70;2.03;;;11.60;99.90;;;;;;5086678;28;20203;-89
2021/04/16 08:34:15;;;;;;;6.87;3.17;;;11.80;99.90;;;;;;5084298;28;20189;-85
2021/04/16 08:36:44;;;;;;;4.53;2.20;;;12.00;99.90;;;;;;5087750;28;20239;-80
2021/04/16 08:39:18;;;;;;;4.33;1.90;;;12.00;99.90;;;;;;5084268;28;20250;-79
2021/04/16 08:41:49;;;;;;;5.10;2.07;;;11.80;99.90;;;;;;5084976;28;20200;-81
2021/04/16 08:44:15;;;;;;;6.43;3.00;;;11.80;99.90;;;;;;5084104;28;20201;-82
2021/04/16 08:46:44;;;;;;;5.77;2.87;;;11.90;99.90;;;;;;5083709;28;20498;-80
2021/04/16 08:49:17;;;;;;;4.40;2.03;;;12.30;99.90;;;;;;5084360;28;20212;-80
2021/04/16 08:51:48;;;;;;;6.07;2.53;;;12.50;99.90;;;;;;5083309;28;20547;-80
2021/04/16 08:54:19;;;;;;;7.23;2.27;;;12.50;99.90;;;;;;5084096;28;20208;-80
2021/04/16 08:56:56;;;;;;;5.37;2.60;;;12.60;99.90;;;;;;5083909;28;20235;-79
2021/04/16 08:59:25;;;;;;;9.13;3.30;;;12.40;99.90;;;;;;5083852;28;20208;-80
2021/04/16 09:01:57;;;;;;;6.03;2.70;;;12.40;99.90;;;;;;5096629;28;20674;-79
2021/04/16 09:04:47;;;;;;;6.13;2.17;;;12.50;99.90;;;;;;5104470;28;20196;-79
2021/04/16 09:07:38;;;;;;;4.50;2.40;;;12.80;99.90;;;;;;5105679;28;20188;-80
2021/04/16 09:10:25;;;;;;;4.67;2.60;;;12.90;99.90;;;;;;5096128;27;20249;-81
2021/04/16 09:12:55;;;;;;;4.97;2.27;;;12.90;99.90;;;;;;5090742;28;20595;-80
2021/04/16 09:15:42;;;;;;;6.07;2.10;;;12.50;99.90;;;;;;5105695;28;20204;-81
2021/04/16 09:18:30;;;;;;;4.93;2.37;;;12.30;99.90;;;;;;5106250;28;20227;-81
2021/04/16 09:21:16;;;;;;;7.70;2.50;;;12.10;99.90;;;;;;5094392;28;20208;-80
2021/04/16 09:23:57;;;;;;;4.27;2.60;;;11.90;99.90;;;;;;5085748;28;20223;-82
2021/04/16 09:26:56;;;;;;;4.60;2.50;;;12.10;99.90;;;;;;5084629;28;20227;-83
2021/04/16 09:29:44;;;;;;;7.30;2.10;;;12.50;99.90;;;;;;5082432;28;20215;-82
2021/04/16 09:32:50;;;;;;;3.73;2.27;;;12.80;99.90;;;;;;5082162;28;20201;-82
2021/04/16 09:35:53;;;;;;;5.20;2.30;;;13.10;99.90;;;;;;5075480;28;20211;-81
2021/04/16 09:38:39;;;;;;;4.50;2.10;;;13.40;99.90;;;;;;5084371;28;20309;-81
2021/04/16 09:41:14;;;;;;;4.57;2.43;;;13.30;99.90;;;;;;5084014;28;20200;-85
2021/04/16 09:43:42;;;;;;;4.03;2.30;;;13.30;99.90;;;;;;5084793;28;20226;-84
2021/04/16 09:46:45;;;;;;;3.60;2.43;;;13.50;99.90;;;;;;5095313;28;20245;-86
2021/04/16 09:49:29;;;;;;;3.83;2.70;;;13.60;99.90;;;;;;5103729;28;20200;-82
2021/04/16 09:51:57;;;;;;;4.67;2.00;;;13.60;99.90;;;;;;5104686;28;20243;-86
2021/04/16 09:54:38;;;;;;;5.53;2.40;;;13.40;99.90;;;;;;5091814;28;20204;-85
2021/04/16 09:57:32;;;;;;;6.43;2.37;;;13.40;99.90;;;;;;5081975;28;20235;-85
2021/04/16 10:00:37;;;;;;;4.60;2.10;;;13.30;99.90;;;;;;5081711;28;20200;-83
2021/04/16 10:03:40;;;;;;;5.17;2.60;;;13.10;99.90;;;;;;5053606;28;20216;-87
2021/04/16 10:06:21;;;;;;;3.30;2.07;;;12.70;99.90;;;;;;5085085;28;20204;-88
2021/04/16 10:09:02;;;;;;;4.47;2.13;;;12.90;99.90;;;;;;5086214;28;20488;-80
2021/04/16 10:11:29;;;;;;;5.47;2.50;;;13.10;99.90;;;;;;5085134;28;20203;-82
2021/04/16 10:14:13;;;;;;;2.60;2.07;;;13.40;99.90;;;;;;5085989;28;20263;-83
2021/04/16 10:16:40;;;;;;;4.83;2.80;;;13.70;99.90;;;;;;5087218;28;20228;-85
2021/04/16 10:19:11;;;;;;;5.27;2.33;;;13.80;99.90;;;;;;5089501;28;20204;-87
2021/04/16 10:21:39;;;;;;;4.17;1.70;;;13.90;99.90;;;;;;5088038;28;20258;-82
2021/04/16 12:38:44;;;;;;;3.37;1.70;;;14.40;99.90;;;;;;5085066;28;20251;-79
2021/04/16 12:41:15;;;;;;;2.80;1.50;;;14.30;99.90;;;;;;5087535;28;20200;-82
2021/04/16 12:43:44;;;;;;;4.50;1.80;;;14.20;99.90;;;;;;5093126;28;20277;-81
2021/04/16 12:46:14;;;;;;;3.47;2.10;;;14.30;99.90;;;;;;5104411;28;20204;-80
2021/04/16 12:48:41;;;;;;;3.47;2.00;;;14.50;99.90;;;;;;5104993;28;20200;-80
2021/04/16 12:51:07;;;;;;;2.30;1.60;;;14.60;99.90;;;;;;5104293;28;20195;-80
2021/04/16 12:53:33;;;;;;;4.70;1.83;;;14.70;99.90;;;;;;5094524;28;20204;-82
2021/04/16 12:56:00;;;;;;;5.77;2.33;;;14.60;99.90;;;;;;5082702;28;20204;-82
2021/04/16 12:58:29;;;;;;;3.13;1.50;;;14.40;99.90;;;;;;5083446;28;20216;-82
2021/04/16 13:00:57;;;;;;;2.17;1.50;;;14.50;99.90;;;;;;5089472;28;20204;-86
2021/04/16 13:03:29;;;;;;;3.33;1.80;;;14.70;99.90;;;;;;5089197;28;20572;-88
2021/04/16 13:05:57;;;;;;;5.03;2.00;;;14.90;99.90;;;;;;5088334;28;20205;-83
2021/04/16 13:08:24;;;;;;;2.33;1.50;;;14.90;99.90;;;;;;5099460;28;20250;-81
2021/04/16 13:10:51;;;;;;;2.73;1.63;;;14.90;99.90;;;;;;5100230;28;20204;-87
2021/04/16 13:13:17;;;;;;;2.37;1.80;;;14.90;99.90;;;;;;5087680;28;20269;-81
2021/04/16 13:15:45;;;;;;;2.67;1.70;;;15.00;99.90;;;;;;5084989;28;20204;-80
2021/04/16 13:18:17;;;;;;;3.07;1.60;;;15.00;99.90;;;;;;5084387;28;20212;-78
2021/04/16 13:20:47;;;;;;;2.90;1.77;;;14.80;99.90;;;;;;5084423;28;20204;-81
2021/04/16 13:23:15;;;;;;;3.53;1.60;;;14.60;99.90;;;;;;5084046;28;20197;-80
2021/04/16 13:25:41;;;;;;;4.07;2.40;;;14.40;99.90;;;;;;5083423;28;20215;-81
2021/04/16 13:28:08;;;;;;;3.00;1.70;;;14.20;99.90;;;;;;5085373;28;20222;-81
2021/04/16 13:30:35;;;;;;;2.67;1.47;;;14.20;99.90;;;;;;5086447;28;20200;-86
2021/04/16 13:33:04;;;;;;;4.63;1.60;;;14.20;99.90;;;;;;5087854;28;20219;-81
2021/04/16 13:35:34;;;;;;;5.73;1.80;;;14.00;99.90;;;;;;5087911;28;20212;-83
2021/04/16 13:38:04;;;;;;;3.17;1.80;;;13.90;99.90;;;;;;5089025;28;20232;-86
2021/04/16 13:40:32;;;;;;;3.50;2.20;;;13.90;99.90;;;;;;5087639;28;20253;-83
2021/04/16 13:42:59;;;;;;;3.77;2.20;;;13.80;99.90;;;;;;5083175;28;20223;-79
2021/04/16 13:45:25;;;;;;;4.57;1.90;;;13.50;99.90;;;;;;5084150;28;20591;-81
2021/04/16 13:47:51;;;;;;;5.10;1.20;;;13.30;99.90;;;;;;5083437;28;20638;-81
2021/04/16 13:50:19;;;;;;;5.10;2.97;;;13.00;99.90;;;;;;5085408;28;20495;-83
2021/04/16 13:52:45;;;;;;;1.80;1.50;;;12.90;99.90;;;;;;5086858;28;20586;-79
2021/04/16 13:55:14;;;;;;;2.27;1.67;;;13.00;99.90;;;;;;5084694;28;20207;-82
2021/04/16 13:57:42;;;;;;;3.40;1.67;;;12.90;99.90;;;;;;5101777;28;20226;-82
2021/04/16 14:00:12;;;;;;;3.40;1.70;;;12.80;99.90;;;;;;5111359;28;20192;-83
2021/04/16 14:02:46;;;;;;;3.47;1.50;;;12.90;99.90;;;;;;5108896;28;20195;-86
2021/04/16 14:05:16;;;;;;;3.60;1.90;;;13.20;99.90;;;;;;5112142;28;20204;-80
2021/04/16 14:07:43;;;;;;;4.77;1.87;;;13.30;99.90;;;;;;5091553;28;20196;-80
2021/04/16 14:10:10;;;;;;;2.90;1.77;;;13.50;99.90;;;;;;5090772;28;20208;-84
2021/04/16 14:12:36;;;;;;;3.47;1.50;;;13.50;99.90;;;;;;5090920;28;20326;-87
2021/04/16 14:15:05;;;;;;;3.93;2.20;;;13.50;99.90;;;;;;5091606;28;20883;-84
2021/04/16 14:17:40;;;;;;;6.73;2.07;;;13.40;99.90;;;;;;5090659;28;20881;-83
2021/04/16 14:20:13;;;;;;;3.60;2.10;;;13.50;99.90;;;;;;5090406;28;20230;-81
2021/04/16 14:22:42;;;;;;;4.80;1.70;;;13.40;99.90;;;;;;5088097;28;20215;-82
2021/04/16 14:25:12;;;;;;;4.43;1.70;;;13.50;99.90;;;;;;5089739;28;20207;-83
2021/04/16 14:27:38;;;;;;;5.90;1.97;;;13.50;99.90;;;;;;5090238;28;20205;-85
2021/04/16 14:30:11;;;;;;;3.63;1.73;;;13.40;99.90;;;;;;5089810;28;20735;-83
2021/04/16 14:32:38;;;;;;;4.30;1.87;;;13.40;99.90;;;;;;5089760;28;20562;-87
2021/04/16 14:35:05;;;;;;;3.07;1.73;;;13.50;99.90;;;;;;5090780;28;20223;-84
2021/04/16 14:37:32;;;;;;;3.47;1.70;;;13.40;99.90;;;;;;5089002;28;20228;-85
2021/04/16 14:39:58;;;;;;;4.00;1.57;;;13.20;99.90;;;;;;5090582;28;20200;-86
2021/04/16 14:42:25;;;;;;;3.17;1.37;;;13.00;99.90;;;;;;5089479;28;20660;-83
2021/04/16 14:44:51;;;;;;;5.90;2.00;;;13.00;99.90;;;;;;5090321;28;20205;-80
2021/04/16 14:47:18;;;;;;;1.97;1.37;;;13.00;99.90;;;;;;5088187;28;20280;-82
2021/04/16 14:49:45;;;;;;;4.20;1.70;;;13.10;99.90;;;;;;5088670;28;20603;-82
2021/04/16 14:52:15;;;;;;;4.17;1.70;;;13.20;99.90;;;;;;5089278;28;20359;-83
2021/04/16 14:54:45;;;;;;;1.83;1.50;;;13.10;99.90;;;;;;5087063;28;20401;-85
2021/04/16 14:57:22;;;;;;;4.20;1.77;;;13.20;99.90;;;;;;5087684;28;20556;-82
2021/04/16 14:59:48;;;;;;;5.07;1.73;;;13.20;99.90;;;;;;5086260;28;20227;-78
2021/04/16 15:02:15;;;;;;;2.27;1.80;;;13.10;99.90;;;;;;5086267;28;20489;-77
2021/04/16 15:04:44;;;;;;;5.67;1.60;;;13.00;99.90;;;;;;5086663;28;20200;-80
2021/04/16 15:07:12;;;;;;;4.03;2.10;;;12.90;99.90;;;;;;5089831;28;20890;-80
2021/04/16 15:09:45;;;;;;;2.63;1.80;;;12.70;99.90;;;;;;5104573;28;20212;-81
2021/04/16 15:12:14;;;;;;;3.80;1.80;;;12.60;99.90;;;;;;5105531;28;20203;-78
2021/04/16 15:14:41;;;;;;;2.97;1.40;;;12.60;99.90;;;;;;5105764;28;20634;-78
2021/04/16 15:17:07;;;;;;;4.23;1.30;;;12.50;99.90;;;;;;5099308;28;20231;-81
2021/04/16 15:19:35;;;;;;;2.80;1.53;;;12.50;99.90;;;;;;5087414;28;20770;-79
2021/04/16 15:22:08;;;;;;;1.97;1.20;;;12.50;99.90;;;;;;5088750;28;20472;-89